Shipley, Arizona
Current Conditions -  °F | °C
As of 3:51 AM on Saturday 25 Oct 2014 (Local Time) from KIGM Reporting Station
Clear Clear  
Wind Chill: 59°   Ceiling: Unl
Heat Index: 59°   Visibility: NA
Dew Point: 41°   Wind: 8mph
Humidity: 51%   Direction: 190°S
Pressure: 30.12"   Gusts: NA
Location:  35.5603°N, 113.544°W
Report Text: KIGM 251051Z AUTO 19007KT CLR 15/05 A3012 RMK AO2 SLP136 T01500050 $
Loading
Personal Weather Stations






























Interactive Weather Map
Tropical Storm Tracking
New forecast layout! Learn more

10-Day Weather Forecast

Advertisements
Track Severe Weather on mobile